sensor_id;sensor_type;location;lat;lon;timestamp;P1;durP1;ratioP1;P2;durP2;ratioP2
46322;SDS011;32044;52.386;13.278;2023-08-06T00:00:40;12.23;;;9.65;;
46322;SDS011;32044;52.386;13.278;2023-08-06T00:03:07;10.57;;;9.32;;
46322;SDS011;32044;52.386;13.278;2023-08-06T00:05:37;12.07;;;9.13;;
46322;SDS011;32044;52.386;13.278;2023-08-06T00:08:04;11.45;;;9.43;;
46322;SDS011;32044;52.386;13.278;2023-08-06T00:10:32;10.15;;;8.38;;
46322;SDS011;32044;52.386;13.278;2023-08-06T00:12:59;9.25;;;8.20;;
46322;SDS011;32044;52.386;13.278;2023-08-06T00:15:27;12.13;;;8.75;;
46322;SDS011;32044;52.386;13.278;2023-08-06T00:17:54;15.13;;;9.23;;
46322;SDS011;32044;52.386;13.278;2023-08-06T00:20:22;12.23;;;9.18;;
46322;SDS011;32044;52.386;13.278;2023-08-06T00:22:51;9.48;;;8.50;;
46322;SDS011;32044;52.386;13.278;2023-08-06T00:25:18;13.60;;;9.02;;
46322;SDS011;32044;52.386;13.278;2023-08-06T00:27:46;10.85;;;8.52;;
46322;SDS011;32044;52.386;13.278;2023-08-06T00:30:13;10.32;;;8.80;;
46322;SDS011;32044;52.386;13.278;2023-08-06T00:32:41;9.63;;;8.27;;
46322;SDS011;32044;52.386;13.278;2023-08-06T00:35:08;9.88;;;8.85;;
46322;SDS011;32044;52.386;13.278;2023-08-06T00:37:36;8.82;;;7.95;;
46322;SDS011;32044;52.386;13.278;2023-08-06T00:40:06;8.18;;;7.38;;
46322;SDS011;32044;52.386;13.278;2023-08-06T00:42:34;8.27;;;7.47;;
46322;SDS011;32044;52.386;13.278;2023-08-06T00:45:02;11.70;;;8.05;;
46322;SDS011;32044;52.386;13.278;2023-08-06T00:47:30;9.32;;;8.32;;
46322;SDS011;32044;52.386;13.278;2023-08-06T00:49:58;12.73;;;8.48;;
46322;SDS011;32044;52.386;13.278;2023-08-06T00:52:25;13.35;;;8.60;;
46322;SDS011;32044;52.386;13.278;2023-08-06T00:54:53;10.30;;;8.00;;
46322;SDS011;32044;52.386;13.278;2023-08-06T00:57:22;10.68;;;8.45;;
46322;SDS011;32044;52.386;13.278;2023-08-06T00:59:52;10.15;;;8.23;;
46322;SDS011;32044;52.386;13.278;2023-08-06T01:02:20;9.65;;;8.75;;
46322;SDS011;32044;52.386;13.278;2023-08-06T01:04:47;9.65;;;8.68;;
46322;SDS011;32044;52.386;13.278;2023-08-06T01:07:21;9.55;;;8.68;;
46322;SDS011;32044;52.386;13.278;2023-08-06T01:09:57;11.48;;;9.32;;
46322;SDS011;32044;52.386;13.278;2023-08-06T01:12:40;11.30;;;10.00;;
46322;SDS011;32044;52.386;13.278;2023-08-06T01:15:14;12.25;;;10.05;;
46322;SDS011;32044;52.386;13.278;2023-08-06T01:17:42;10.00;;;9.02;;
46322;SDS011;32044;52.386;13.278;2023-08-06T01:20:11;14.48;;;9.77;;
46322;SDS011;32044;52.386;13.278;2023-08-06T01:22:40;13.30;;;10.23;;
46322;SDS011;32044;52.386;13.278;2023-08-06T01:25:08;10.73;;;9.63;;
46322;SDS011;32044;52.386;13.278;2023-08-06T01:27:37;10.65;;;9.65;;
46322;SDS011;32044;52.386;13.278;2023-08-06T01:30:07;12.88;;;9.20;;
46322;SDS011;32044;52.386;13.278;2023-08-06T01:32:37;12.77;;;9.90;;
46322;SDS011;32044;52.386;13.278;2023-08-06T01:35:06;11.68;;;10.48;;
46322;SDS011;32044;52.386;13.278;2023-08-06T01:37:35;10.20;;;9.20;;
46322;SDS011;32044;52.386;13.278;2023-08-06T01:40:07;10.55;;;9.30;;
46322;SDS011;32044;52.386;13.278;2023-08-06T01:42:36;10.10;;;9.10;;
46322;SDS011;32044;52.386;13.278;2023-08-06T01:45:04;12.38;;;9.25;;
46322;SDS011;32044;52.386;13.278;2023-08-06T01:47:32;11.02;;;9.93;;
46322;SDS011;32044;52.386;13.278;2023-08-06T01:50:00;11.38;;;9.32;;
46322;SDS011;32044;52.386;13.278;2023-08-06T01:52:27;11.80;;;9.73;;
46322;SDS011;32044;52.386;13.278;2023-08-06T01:54:55;12.57;;;10.18;;
46322;SDS011;32044;52.386;13.278;2023-08-06T01:57:24;12.65;;;10.00;;
46322;SDS011;32044;52.386;13.278;2023-08-06T01:59:51;12.07;;;10.93;;
46322;SDS011;32044;52.386;13.278;2023-08-06T02:02:19;13.02;;;10.35;;
46322;SDS011;32044;52.386;13.278;2023-08-06T02:04:47;11.50;;;10.30;;
46322;SDS011;32044;52.386;13.278;2023-08-06T02:07:14;13.23;;;11.00;;
46322;SDS011;32044;52.386;13.278;2023-08-06T02:09:42;12.25;;;10.98;;
46322;SDS011;32044;52.386;13.278;2023-08-06T02:12:09;12.30;;;11.10;;
46322;SDS011;32044;52.386;13.278;2023-08-06T02:14:38;12.90;;;10.68;;
46322;SDS011;32044;52.386;13.278;2023-08-06T02:17:06;12.80;;;11.45;;
46322;SDS011;32044;52.386;13.278;2023-08-06T02:19:33;11.63;;;10.52;;
46322;SDS011;32044;52.386;13.278;2023-08-06T02:22:01;12.45;;;10.93;;
46322;SDS011;32044;52.386;13.278;2023-08-06T02:24:29;12.45;;;11.18;;
46322;SDS011;32044;52.386;13.278;2023-08-06T02:26:56;12.68;;;10.23;;
46322;SDS011;32044;52.386;13.278;2023-08-06T02:29:24;12.13;;;10.85;;
46322;SDS011;32044;52.386;13.278;2023-08-06T02:31:53;13.93;;;11.30;;
46322;SDS011;32044;52.386;13.278;2023-08-06T02:34:21;13.60;;;11.38;;
46322;SDS011;32044;52.386;13.278;2023-08-06T02:36:49;11.65;;;10.45;;
46322;SDS011;32044;52.386;13.278;2023-08-06T02:39:16;11.25;;;10.15;;
46322;SDS011;32044;52.386;13.278;2023-08-06T02:41:44;13.07;;;11.73;;
46322;SDS011;32044;52.386;13.278;2023-08-06T02:44:12;16.10;;;11.38;;
46322;SDS011;32044;52.386;13.278;2023-08-06T02:46:39;13.55;;;12.15;;
46322;SDS011;32044;52.386;13.278;2023-08-06T02:49:08;12.27;;;10.18;;
46322;SDS011;32044;52.386;13.278;2023-08-06T02:51:35;11.18;;;10.07;;
46322;SDS011;32044;52.386;13.278;2023-08-06T02:54:03;11.90;;;10.70;;
46322;SDS011;32044;52.386;13.278;2023-08-06T02:56:30;12.20;;;11.00;;
46322;SDS011;32044;52.386;13.278;2023-08-06T02:58:58;12.30;;;10.30;;
46322;SDS011;32044;52.386;13.278;2023-08-06T03:01:26;13.07;;;11.68;;
46322;SDS011;32044;52.386;13.278;2023-08-06T03:03:55;12.18;;;10.77;;
46322;SDS011;32044;52.386;13.278;2023-08-06T03:06:24;11.95;;;10.52;;
46322;SDS011;32044;52.386;13.278;2023-08-06T03:08:51;13.63;;;12.23;;
46322;SDS011;32044;52.386;13.278;2023-08-06T03:11:18;14.13;;;12.40;;
46322;SDS011;32044;52.386;13.278;2023-08-06T03:13:46;13.20;;;11.80;;
46322;SDS011;32044;52.386;13.278;2023-08-06T03:16:14;16.00;;;12.55;;
46322;SDS011;32044;52.386;13.278;2023-08-06T03:18:42;13.48;;;12.15;;
46322;SDS011;32044;52.386;13.278;2023-08-06T03:21:09;13.93;;;12.43;;
46322;SDS011;32044;52.386;13.278;2023-08-06T03:23:38;13.98;;;12.45;;
46322;SDS011;32044;52.386;13.278;2023-08-06T03:26:05;14.07;;;12.68;;
46322;SDS011;32044;52.386;13.278;2023-08-06T03:28:33;14.88;;;13.50;;
46322;SDS011;32044;52.386;13.278;2023-08-06T03:31:01;16.13;;;11.93;;
46322;SDS011;32044;52.386;13.278;2023-08-06T03:33:29;14.98;;;13.35;;
46322;SDS011;32044;52.386;13.278;2023-08-06T03:35:57;14.68;;;13.00;;
46322;SDS011;32044;52.386;13.278;2023-08-06T03:38:24;14.00;;;12.38;;
46322;SDS011;32044;52.386;13.278;2023-08-06T03:40:53;16.40;;;12.23;;
46322;SDS011;32044;52.386;13.278;2023-08-06T03:43:21;13.00;;;11.70;;
46322;SDS011;32044;52.386;13.278;2023-08-06T03:45:49;13.35;;;11.32;;
46322;SDS011;32044;52.386;13.278;2023-08-06T03:48:16;13.38;;;11.05;;
46322;SDS011;32044;52.386;13.278;2023-08-06T03:50:44;14.68;;;11.45;;
46322;SDS011;32044;52.386;13.278;2023-08-06T03:53:12;11.85;;;10.65;;
46322;SDS011;32044;52.386;13.278;2023-08-06T03:55:39;11.38;;;10.27;;
46322;SDS011;32044;52.386;13.278;2023-08-06T03:58:08;11.65;;;10.48;;
46322;SDS011;32044;52.386;13.278;2023-08-06T04:00:35;11.73;;;10.35;;
46322;SDS011;32044;52.386;13.278;2023-08-06T04:03:03;11.52;;;10.10;;
46322;SDS011;32044;52.386;13.278;2023-08-06T04:05:31;11.75;;;10.43;;
46322;SDS011;32044;52.386;13.278;2023-08-06T04:07:58;13.65;;;10.43;;
46322;SDS011;32044;52.386;13.278;2023-08-06T04:10:26;12.27;;;10.98;;
46322;SDS011;32044;52.386;13.278;2023-08-06T04:12:54;10.60;;;9.50;;
46322;SDS011;32044;52.386;13.278;2023-08-06T04:15:22;13.25;;;10.77;;
46322;SDS011;32044;52.386;13.278;2023-08-06T04:17:50;12.52;;;11.00;;
46322;SDS011;32044;52.386;13.278;2023-08-06T04:20:18;10.73;;;9.40;;
46322;SDS011;32044;52.386;13.278;2023-08-06T04:22:45;10.43;;;9.40;;
46322;SDS011;32044;52.386;13.278;2023-08-06T04:25:13;10.63;;;9.55;;
46322;SDS011;32044;52.386;13.278;2023-08-06T04:27:40;11.40;;;10.18;;
46322;SDS011;32044;52.386;13.278;2023-08-06T04:30:08;11.05;;;9.98;;
46322;SDS011;32044;52.386;13.278;2023-08-06T04:32:40;12.90;;;10.13;;
46322;SDS011;32044;52.386;13.278;2023-08-06T04:35:07;12.77;;;10.38;;
46322;SDS011;32044;52.386;13.278;2023-08-06T04:37:35;9.43;;;8.30;;
46322;SDS011;32044;52.386;13.278;2023-08-06T04:40:03;9.50;;;8.50;;
46322;SDS011;32044;52.386;13.278;2023-08-06T04:42:31;10.23;;;9.23;;
46322;SDS011;32044;52.386;13.278;2023-08-06T04:45:01;11.35;;;9.52;;
46322;SDS011;32044;52.386;13.278;2023-08-06T04:47:28;10.50;;;9.25;;
46322;SDS011;32044;52.386;13.278;2023-08-06T04:49:57;10.27;;;9.13;;
46322;SDS011;32044;52.386;13.278;2023-08-06T04:52:25;10.85;;;8.93;;
46322;SDS011;32044;52.386;13.278;2023-08-06T04:54:54;15.65;;;9.70;;
46322;SDS011;32044;52.386;13.278;2023-08-06T04:57:22;11.82;;;9.32;;
46322;SDS011;32044;52.386;13.278;2023-08-06T04:59:49;11.43;;;10.32;;
46322;SDS011;32044;52.386;13.278;2023-08-06T05:02:17;12.27;;;9.65;;
46322;SDS011;32044;52.386;13.278;2023-08-06T05:04:44;11.35;;;9.25;;
46322;SDS011;32044;52.386;13.278;2023-08-06T05:07:13;11.98;;;9.07;;
46322;SDS011;32044;52.386;13.278;2023-08-06T05:09:41;11.05;;;9.75;;
46322;SDS011;32044;52.386;13.278;2023-08-06T05:12:08;11.35;;;10.00;;
46322;SDS011;32044;52.386;13.278;2023-08-06T05:14:36;10.55;;;9.50;;
46322;SDS011;32044;52.386;13.278;2023-08-06T05:17:04;10.52;;;9.38;;
46322;SDS011;32044;52.386;13.278;2023-08-06T05:19:31;11.30;;;9.20;;
46322;SDS011;32044;52.386;13.278;2023-08-06T05:21:59;10.30;;;9.20;;
46322;SDS011;32044;52.386;13.278;2023-08-06T05:24:28;11.63;;;10.18;;
46322;SDS011;32044;52.386;13.278;2023-08-06T05:26:56;12.90;;;10.35;;
46322;SDS011;32044;52.386;13.278;2023-08-06T05:29:23;12.18;;;10.88;;
46322;SDS011;32044;52.386;13.278;2023-08-06T05:31:51;12.13;;;10.93;;
46322;SDS011;32044;52.386;13.278;2023-08-06T05:34:19;15.23;;;11.07;;
46322;SDS011;32044;52.386;13.278;2023-08-06T05:36:46;14.68;;;11.55;;
46322;SDS011;32044;52.386;13.278;2023-08-06T05:39:14;12.77;;;10.88;;
46322;SDS011;32044;52.386;13.278;2023-08-06T05:41:43;12.27;;;10.88;;
46322;SDS011;32044;52.386;13.278;2023-08-06T05:44:10;14.13;;;11.02;;
46322;SDS011;32044;52.386;13.278;2023-08-06T05:46:38;13.30;;;10.90;;
46322;SDS011;32044;52.386;13.278;2023-08-06T05:49:05;11.63;;;10.55;;
46322;SDS011;32044;52.386;13.278;2023-08-06T05:51:33;14.77;;;11.40;;
46322;SDS011;32044;52.386;13.278;2023-08-06T05:54:00;12.13;;;10.80;;
46322;SDS011;32044;52.386;13.278;2023-08-06T05:56:28;12.70;;;10.27;;
46322;SDS011;32044;52.386;13.278;2023-08-06T05:58:57;12.85;;;11.40;;
46322;SDS011;32044;52.386;13.278;2023-08-06T06:01:24;12.95;;;9.85;;
46322;SDS011;32044;52.386;13.278;2023-08-06T06:03:52;10.13;;;7.95;;
46322;SDS011;32044;52.386;13.278;2023-08-06T06:06:19;8.07;;;7.28;;
46322;SDS011;32044;52.386;13.278;2023-08-06T06:08:47;8.48;;;7.57;;
46322;SDS011;32044;52.386;13.278;2023-08-06T06:11:14;9.55;;;7.50;;
46322;SDS011;32044;52.386;13.278;2023-08-06T06:13:42;7.15;;;6.55;;
46322;SDS011;32044;52.386;13.278;2023-08-06T06:16:11;6.53;;;5.93;;
46322;SDS011;32044;52.386;13.278;2023-08-06T06:18:39;9.73;;;7.13;;
46322;SDS011;32044;52.386;13.278;2023-08-06T06:21:06;8.02;;;7.28;;
46322;SDS011;32044;52.386;13.278;2023-08-06T06:23:34;7.65;;;6.88;;
46322;SDS011;32044;52.386;13.278;2023-08-06T06:26:01;5.65;;;5.15;;
46322;SDS011;32044;52.386;13.278;2023-08-06T06:28:29;5.97;;;5.38;;
46322;SDS011;32044;52.386;13.278;2023-08-06T06:30:59;6.88;;;5.82;;
46322;SDS011;32044;52.386;13.278;2023-08-06T06:33:28;6.30;;;5.70;;
46322;SDS011;32044;52.386;13.278;2023-08-06T06:35:56;5.80;;;5.20;;
46322;SDS011;32044;52.386;13.278;2023-08-06T06:38:23;8.05;;;6.07;;
46322;SDS011;32044;52.386;13.278;2023-08-06T06:40:54;6.25;;;5.70;;
46322;SDS011;32044;52.386;13.278;2023-08-06T06:43:22;5.83;;;5.33;;
46322;SDS011;32044;52.386;13.278;2023-08-06T06:45:52;5.97;;;5.35;;
46322;SDS011;32044;52.386;13.278;2023-08-06T06:48:23;6.03;;;5.07;;
46322;SDS011;32044;52.386;13.278;2023-08-06T06:50:52;6.13;;;5.60;;
46322;SDS011;32044;52.386;13.278;2023-08-06T06:53:19;5.72;;;5.20;;
46322;SDS011;32044;52.386;13.278;2023-08-06T06:55:47;5.97;;;5.47;;
46322;SDS011;32044;52.386;13.278;2023-08-06T06:58:15;5.25;;;4.75;;
46322;SDS011;32044;52.386;13.278;2023-08-06T07:00:43;6.35;;;5.32;;
46322;SDS011;32044;52.386;13.278;2023-08-06T07:03:10;5.43;;;4.75;;
46322;SDS011;32044;52.386;13.278;2023-08-06T07:05:38;7.90;;;7.20;;
46322;SDS011;32044;52.386;13.278;2023-08-06T07:08:06;7.75;;;7.05;;
46322;SDS011;32044;52.386;13.278;2023-08-06T07:10:34;5.80;;;5.20;;
46322;SDS011;32044;52.386;13.278;2023-08-06T07:13:02;5.53;;;5.03;;
46322;SDS011;32044;52.386;13.278;2023-08-06T07:15:29;6.57;;;5.95;;
46322;SDS011;32044;52.386;13.278;2023-08-06T07:17:57;9.82;;;6.28;;
46322;SDS011;32044;52.386;13.278;2023-08-06T07:20:24;8.18;;;6.30;;
46322;SDS011;32044;52.386;13.278;2023-08-06T07:22:52;6.55;;;5.93;;
46322;SDS011;32044;52.386;13.278;2023-08-06T07:25:21;7.32;;;6.15;;
46322;SDS011;32044;52.386;13.278;2023-08-06T07:27:48;5.95;;;5.38;;
46322;SDS011;32044;52.386;13.278;2023-08-06T07:30:16;7.20;;;6.53;;
46322;SDS011;32044;52.386;13.278;2023-08-06T07:32:43;5.70;;;5.20;;
46322;SDS011;32044;52.386;13.278;2023-08-06T07:35:11;7.13;;;6.40;;
46322;SDS011;32044;52.386;13.278;2023-08-06T07:37:40;7.40;;;6.57;;
46322;SDS011;32044;52.386;13.278;2023-08-06T07:40:08;7.95;;;6.38;;
46322;SDS011;32044;52.386;13.278;2023-08-06T07:42:38;7.20;;;6.47;;
46322;SDS011;32044;52.386;13.278;2023-08-06T07:45:06;5.80;;;5.28;;
46322;SDS011;32044;52.386;13.278;2023-08-06T07:47:35;5.68;;;5.25;;
46322;SDS011;32044;52.386;13.278;2023-08-06T07:50:02;5.47;;;4.97;;
46322;SDS011;32044;52.386;13.278;2023-08-06T07:52:30;5.22;;;4.70;;
46322;SDS011;32044;52.386;13.278;2023-08-06T07:54:58;5.10;;;4.60;;
46322;SDS011;32044;52.386;13.278;2023-08-06T07:57:26;5.45;;;4.95;;
46322;SDS011;32044;52.386;13.278;2023-08-06T07:59:55;4.80;;;4.40;;
46322;SDS011;32044;52.386;13.278;2023-08-06T08:02:23;6.93;;;4.97;;
46322;SDS011;32044;52.386;13.278;2023-08-06T08:04:51;5.70;;;5.10;;
46322;SDS011;32044;52.386;13.278;2023-08-06T08:07:19;6.90;;;5.10;;
46322;SDS011;32044;52.386;13.278;2023-08-06T08:09:47;5.75;;;5.25;;
46322;SDS011;32044;52.386;13.278;2023-08-06T08:12:14;6.22;;;5.70;;
46322;SDS011;32044;52.386;13.278;2023-08-06T08:14:42;4.95;;;4.47;;
46322;SDS011;32044;52.386;13.278;2023-08-06T08:17:13;5.97;;;5.15;;
46322;SDS011;32044;52.386;13.278;2023-08-06T08:19:40;5.45;;;4.95;;
46322;SDS011;32044;52.386;13.278;2023-08-06T08:22:08;5.20;;;4.70;;
46322;SDS011;32044;52.386;13.278;2023-08-06T08:24:35;5.40;;;4.72;;
46322;SDS011;32044;52.386;13.278;2023-08-06T08:27:03;5.50;;;5.00;;
46322;SDS011;32044;52.386;13.278;2023-08-06T08:29:32;5.43;;;4.70;;
46322;SDS011;32044;52.386;13.278;2023-08-06T08:31:59;5.18;;;4.68;;
46322;SDS011;32044;52.386;13.278;2023-08-06T08:34:28;5.07;;;4.63;;
46322;SDS011;32044;52.386;13.278;2023-08-06T08:36:56;5.32;;;4.80;;
46322;SDS011;32044;52.386;13.278;2023-08-06T08:39:24;5.05;;;4.32;;
46322;SDS011;32044;52.386;13.278;2023-08-06T08:41:52;4.97;;;4.57;;
46322;SDS011;32044;52.386;13.278;2023-08-06T08:44:20;4.95;;;4.40;;
46322;SDS011;32044;52.386;13.278;2023-08-06T08:46:47;5.07;;;4.68;;
46322;SDS011;32044;52.386;13.278;2023-08-06T08:49:15;5.78;;;4.40;;
46322;SDS011;32044;52.386;13.278;2023-08-06T08:51:45;5.35;;;4.85;;
46322;SDS011;32044;52.386;13.278;2023-08-06T08:54:13;5.75;;;4.50;;
46322;SDS011;32044;52.386;13.278;2023-08-06T08:56:40;5.18;;;4.78;;
46322;SDS011;32044;52.386;13.278;2023-08-06T08:59:09;5.20;;;4.70;;
46322;SDS011;32044;52.386;13.278;2023-08-06T09:01:37;5.68;;;5.10;;
46322;SDS011;32044;52.386;13.278;2023-08-06T09:04:05;5.45;;;5.05;;
46322;SDS011;32044;52.386;13.278;2023-08-06T09:06:35;6.18;;;5.57;;
46322;SDS011;32044;52.386;13.278;2023-08-06T09:09:06;5.28;;;4.78;;
46322;SDS011;32044;52.386;13.278;2023-08-06T09:11:37;6.03;;;5.43;;
46322;SDS011;32044;52.386;13.278;2023-08-06T09:14:07;6.05;;;5.45;;
46322;SDS011;32044;52.386;13.278;2023-08-06T09:16:35;5.97;;;5.30;;
46322;SDS011;32044;52.386;13.278;2023-08-06T09:19:09;6.78;;;5.50;;
46322;SDS011;32044;52.386;13.278;2023-08-06T09:21:38;6.93;;;5.72;;
46322;SDS011;32044;52.386;13.278;2023-08-06T09:24:09;6.30;;;5.70;;
46322;SDS011;32044;52.386;13.278;2023-08-06T09:26:37;7.13;;;6.13;;
46322;SDS011;32044;52.386;13.278;2023-08-06T09:29:05;6.72;;;5.97;;
46322;SDS011;32044;52.386;13.278;2023-08-06T09:31:34;6.50;;;5.90;;
46322;SDS011;32044;52.386;13.278;2023-08-06T09:34:10;6.97;;;6.28;;
46322;SDS011;32044;52.386;13.278;2023-08-06T09:36:39;7.50;;;6.80;;
46322;SDS011;32044;52.386;13.278;2023-08-06T09:39:13;7.65;;;6.70;;
46322;SDS011;32044;52.386;13.278;2023-08-06T09:41:42;7.88;;;7.07;;
46322;SDS011;32044;52.386;13.278;2023-08-06T09:44:14;10.02;;;7.00;;
46322;SDS011;32044;52.386;13.278;2023-08-06T09:46:46;7.63;;;6.95;;
46322;SDS011;32044;52.386;13.278;2023-08-06T09:49:14;7.80;;;7.10;;
46322;SDS011;32044;52.386;13.278;2023-08-06T09:51:42;7.53;;;6.82;;
46322;SDS011;32044;52.386;13.278;2023-08-06T09:54:11;7.35;;;6.65;;
46322;SDS011;32044;52.386;13.278;2023-08-06T09:59:22;7.03;;;6.43;;
46322;SDS011;32044;52.386;13.278;2023-08-06T10:01:50;8.13;;;7.32;;
46322;SDS011;32044;52.386;13.278;2023-08-06T10:04:19;8.32;;;7.53;;
46322;SDS011;32044;52.386;13.278;2023-08-06T10:06:52;7.57;;;6.88;;
46322;SDS011;32044;52.386;13.278;2023-08-06T10:09:20;7.90;;;7.10;;
46322;SDS011;32044;52.386;13.278;2023-08-06T10:11:50;8.52;;;7.72;;
46322;SDS011;32044;52.386;13.278;2023-08-06T10:14:22;8.18;;;7.38;;
46322;SDS011;32044;52.386;13.278;2023-08-06T10:16:53;7.75;;;7.03;;
46322;SDS011;32044;52.386;13.278;2023-08-06T10:19:21;7.53;;;6.82;;
46322;SDS011;32044;52.386;13.278;2023-08-06T10:22:07;6.93;;;6.20;;
46322;SDS011;32044;52.386;13.278;2023-08-06T10:24:46;8.93;;;7.65;;
46322;SDS011;32044;52.386;13.278;2023-08-06T10:27:16;8.00;;;7.15;;
46322;SDS011;32044;52.386;13.278;2023-08-06T10:29:48;10.32;;;7.82;;
46322;SDS011;32044;52.386;13.278;2023-08-06T10:32:16;8.85;;;8.05;;
46322;SDS011;32044;52.386;13.278;2023-08-06T10:34:55;9.40;;;8.35;;
46322;SDS011;32044;52.386;13.278;2023-08-06T10:37:23;9.23;;;8.43;;
46322;SDS011;32044;52.386;13.278;2023-08-06T10:39:51;9.88;;;8.88;;
46322;SDS011;32044;52.386;13.278;2023-08-06T10:42:20;10.55;;;9.55;;
46322;SDS011;32044;52.386;13.278;2023-08-06T10:47:42;10.15;;;9.25;;
46322;SDS011;32044;52.386;13.278;2023-08-06T10:50:11;10.20;;;9.00;;
46322;SDS011;32044;52.386;13.278;2023-08-06T10:52:39;11.13;;;10.07;;
46322;SDS011;32044;52.386;13.278;2023-08-06T10:55:07;10.15;;;9.15;;
46322;SDS011;32044;52.386;13.278;2023-08-06T10:57:36;9.55;;;8.70;;
46322;SDS011;32044;52.386;13.278;2023-08-06T11:00:04;9.68;;;8.32;;
46322;SDS011;32044;52.386;13.278;2023-08-06T11:02:43;8.73;;;7.93;;
46322;SDS011;32044;52.386;13.278;2023-08-06T11:05:11;8.95;;;8.15;;
46322;SDS011;32044;52.386;13.278;2023-08-06T11:07:39;9.40;;;8.52;;
46322;SDS011;32044;52.386;13.278;2023-08-06T11:10:07;9.40;;;8.50;;
46322;SDS011;32044;52.386;13.278;2023-08-06T11:12:35;9.77;;;8.75;;
46322;SDS011;32044;52.386;13.278;2023-08-06T11:15:04;8.38;;;7.60;;
46322;SDS011;32044;52.386;13.278;2023-08-06T11:17:32;8.75;;;7.85;;
46322;SDS011;32044;52.386;13.278;2023-08-06T11:20:02;7.72;;;6.93;;
46322;SDS011;32044;52.386;13.278;2023-08-06T11:22:30;7.90;;;7.10;;
46322;SDS011;32044;52.386;13.278;2023-08-06T11:24:58;7.95;;;7.25;;
46322;SDS011;32044;52.386;13.278;2023-08-06T11:27:27;8.52;;;7.72;;
46322;SDS011;32044;52.386;13.278;2023-08-06T11:29:55;7.75;;;7.13;;
46322;SDS011;32044;52.386;13.278;2023-08-06T11:32:23;8.70;;;7.90;;
46322;SDS011;32044;52.386;13.278;2023-08-06T11:34:52;7.32;;;6.63;;
46322;SDS011;32044;52.386;13.278;2023-08-06T11:37:23;8.50;;;7.40;;
46322;SDS011;32044;52.386;13.278;2023-08-06T11:39:51;7.60;;;6.88;;
46322;SDS011;32044;52.386;13.278;2023-08-06T11:42:19;7.53;;;6.93;;
46322;SDS011;32044;52.386;13.278;2023-08-06T11:44:47;8.32;;;7.63;;
46322;SDS011;32044;52.386;13.278;2023-08-06T11:47:15;7.28;;;6.68;;
46322;SDS011;32044;52.386;13.278;2023-08-06T11:49:44;7.43;;;6.72;;
46322;SDS011;32044;52.386;13.278;2023-08-06T11:52:14;7.15;;;6.55;;
46322;SDS011;32044;52.386;13.278;2023-08-06T11:57:15;7.45;;;6.68;;
46322;SDS011;32044;52.386;13.278;2023-08-06T11:59:43;7.53;;;6.82;;
46322;SDS011;32044;52.386;13.278;2023-08-06T12:02:11;7.10;;;6.50;;
46322;SDS011;32044;52.386;13.278;2023-08-06T12:07:30;7.00;;;6.40;;
46322;SDS011;32044;52.386;13.278;2023-08-06T12:09:59;7.35;;;6.70;;
46322;SDS011;32044;52.386;13.278;2023-08-06T12:12:27;7.40;;;6.45;;
46322;SDS011;32044;52.386;13.278;2023-08-06T12:14:54;7.53;;;6.30;;
46322;SDS011;32044;52.386;13.278;2023-08-06T12:17:23;7.50;;;6.80;;
46322;SDS011;32044;52.386;13.278;2023-08-06T12:19:51;8.65;;;6.93;;
46322;SDS011;32044;52.386;13.278;2023-08-06T12:22:19;6.85;;;6.15;;
46322;SDS011;32044;52.386;13.278;2023-08-06T12:24:49;7.40;;;6.73;;
46322;SDS011;32044;52.386;13.278;2023-08-06T12:27:18;8.27;;;6.80;;
46322;SDS011;32044;52.386;13.278;2023-08-06T12:29:47;7.97;;;6.47;;
46322;SDS011;32044;52.386;13.278;2023-08-06T12:32:15;6.50;;;5.90;;
46322;SDS011;32044;52.386;13.278;2023-08-06T12:34:43;6.88;;;6.28;;
46322;SDS011;32044;52.386;13.278;2023-08-06T12:37:18;6.97;;;6.30;;
46322;SDS011;32044;52.386;13.278;2023-08-06T12:39:46;7.30;;;6.63;;
46322;SDS011;32044;52.386;13.278;2023-08-06T12:42:13;7.13;;;6.43;;
46322;SDS011;32044;52.386;13.278;2023-08-06T12:44:42;6.95;;;6.25;;
46322;SDS011;32044;52.386;13.278;2023-08-06T12:47:09;6.50;;;5.95;;
46322;SDS011;32044;52.386;13.278;2023-08-06T12:49:37;6.72;;;5.90;;
46322;SDS011;32044;52.386;13.278;2023-08-06T12:52:05;6.60;;;6.00;;
46322;SDS011;32044;52.386;13.278;2023-08-06T12:54:35;7.90;;;5.85;;
46322;SDS011;32044;52.386;13.278;2023-08-06T12:57:03;6.28;;;5.78;;
46322;SDS011;32044;52.386;13.278;2023-08-06T12:59:32;6.70;;;6.10;;
46322;SDS011;32044;52.386;13.278;2023-08-06T13:02:01;6.43;;;5.82;;
46322;SDS011;32044;52.386;13.278;2023-08-06T13:04:28;6.28;;;5.68;;
46322;SDS011;32044;52.386;13.278;2023-08-06T13:06:56;6.35;;;5.78;;
46322;SDS011;32044;52.386;13.278;2023-08-06T13:09:24;5.50;;;5.00;;
46322;SDS011;32044;52.386;13.278;2023-08-06T13:11:52;4.75;;;4.32;;
46322;SDS011;32044;52.386;13.278;2023-08-06T13:14:20;5.13;;;2.72;;
46322;SDS011;32044;52.386;13.278;2023-08-06T13:16:47;18.27;;;4.68;;
46322;SDS011;32044;52.386;13.278;2023-08-06T13:19:16;6.57;;;2.90;;
46322;SDS011;32044;52.386;13.278;2023-08-06T13:22:02;10.27;;;2.85;;
46322;SDS011;32044;52.386;13.278;2023-08-06T13:24:31;10.60;;;3.70;;
46322;SDS011;32044;52.386;13.278;2023-08-06T13:26:59;7.82;;;3.25;;
46322;SDS011;32044;52.386;13.278;2023-08-06T13:29:26;12.27;;;3.55;;
46322;SDS011;32044;52.386;13.278;2023-08-06T13:31:54;6.65;;;3.42;;
46322;SDS011;32044;52.386;13.278;2023-08-06T13:34:23;5.57;;;3.92;;
46322;SDS011;32044;52.386;13.278;2023-08-06T13:36:50;7.35;;;4.07;;
46322;SDS011;32044;52.386;13.278;2023-08-06T13:39:19;6.75;;;3.90;;
46322;SDS011;32044;52.386;13.278;2023-08-06T13:41:46;6.63;;;3.67;;
46322;SDS011;32044;52.386;13.278;2023-08-06T13:44:14;9.48;;;4.53;;
46322;SDS011;32044;52.386;13.278;2023-08-06T13:46:42;7.22;;;4.65;;
46322;SDS011;32044;52.386;13.278;2023-08-06T13:49:09;5.97;;;3.97;;
46322;SDS011;32044;52.386;13.278;2023-08-06T13:51:38;6.38;;;4.22;;
46322;SDS011;32044;52.386;13.278;2023-08-06T13:54:06;4.45;;;3.85;;
46322;SDS011;32044;52.386;13.278;2023-08-06T13:56:34;7.25;;;4.43;;
46322;SDS011;32044;52.386;13.278;2023-08-06T13:59:03;4.63;;;4.10;;
46322;SDS011;32044;52.386;13.278;2023-08-06T14:01:31;8.48;;;4.90;;
46322;SDS011;32044;52.386;13.278;2023-08-06T14:04:02;5.90;;;4.88;;
46322;SDS011;32044;52.386;13.278;2023-08-06T14:06:30;5.72;;;4.45;;
46322;SDS011;32044;52.386;13.278;2023-08-06T14:08:59;5.90;;;4.55;;
46322;SDS011;32044;52.386;13.278;2023-08-06T14:11:26;4.95;;;4.43;;
46322;SDS011;32044;52.386;13.278;2023-08-06T14:13:54;5.28;;;4.78;;
46322;SDS011;32044;52.386;13.278;2023-08-06T14:16:21;5.30;;;4.60;;
46322;SDS011;32044;52.386;13.278;2023-08-06T14:18:49;5.38;;;4.88;;
46322;SDS011;32044;52.386;13.278;2023-08-06T14:21:16;5.00;;;4.50;;
46322;SDS011;32044;52.386;13.278;2023-08-06T14:23:44;4.90;;;4.43;;
46322;SDS011;32044;52.386;13.278;2023-08-06T14:26:13;6.60;;;5.05;;
46322;SDS011;32044;52.386;13.278;2023-08-06T14:28:41;6.82;;;5.57;;
46322;SDS011;32044;52.386;13.278;2023-08-06T14:31:09;9.35;;;5.65;;
46322;SDS011;32044;52.386;13.278;2023-08-06T14:33:36;8.50;;;5.55;;
46322;SDS011;32044;52.386;13.278;2023-08-06T14:36:04;7.50;;;6.40;;
46322;SDS011;32044;52.386;13.278;2023-08-06T14:38:31;6.47;;;5.88;;
46322;SDS011;32044;52.386;13.278;2023-08-06T14:41:08;7.07;;;6.38;;
46322;SDS011;32044;52.386;13.278;2023-08-06T14:43:46;7.85;;;6.38;;